Time;durP1;ratioP1;P1;durP2;ratioP2;P2;SDS_P1;SDS_P2;PMS_P1;PMS_P2;Temp;Humidity;BMP_temperature;BMP_pressure;BME280_temperature;BME280_humidity;BME280_pressure;Samples;Min_cycle;Max_cycle;Signal;HPM_P1;HPM_P2
2023/05/22 03:59:53;;;;;;;8.57;5.40;;;;;;;18.65;67.66;100420.19;5607240;31;81856;-58
2023/05/22 04:02:57;;;;;;;13.40;5.87;;;;;;;18.65;67.66;100420.19;5603033;31;34071;-59
2023/05/22 04:06:00;;;;;;;6.82;5.20;;;;;;;18.30;70.74;100415.81;5603364;31;33532;-59
2023/05/22 04:09:03;;;;;;;13.68;5.32;;;;;;;18.34;72.98;100418.66;5603701;31;33538;-59
2023/05/22 04:12:06;;;;;;;7.30;5.37;;;;;;;18.38;69.40;100419.59;5602593;31;33241;-59
2023/05/22 04:15:08;;;;;;;6.43;4.85;;;;;;;18.54;77.29;100422.50;5591726;31;34293;-59
2023/05/22 04:18:11;;;;;;;11.05;4.87;;;;;;;18.59;71.37;100416.09;5583545;31;33509;-59
2023/05/22 04:21:16;;;;;;;7.05;4.70;;;;;;;18.59;70.07;100418.78;5583383;31;33453;-59
2023/05/22 04:24:21;;;;;;;8.15;4.65;;;;;;;18.72;71.96;100423.19;5593448;31;33662;-60
2023/05/22 04:27:25;;;;;;;8.45;5.40;;;;;;;18.74;65.79;100424.44;5602518;31;33812;-59
2023/05/22 04:30:27;;;;;;;6.28;4.62;;;;;;;18.75;71.69;100428.72;5603195;31;33858;-59
2023/05/22 04:33:33;;;;;;;9.98;4.87;;;;;;;18.75;64.25;100420.59;5602998;31;33664;-59
2023/05/22 04:36:35;;;;;;;10.40;4.68;;;;;;;18.82;73.37;100421.97;5603429;31;33713;-59
2023/05/22 04:39:39;;;;;;;8.27;4.62;;;;;;;18.85;70.68;100422.09;5603121;31;33535;-59
2023/05/22 04:42:41;;;;;;;8.50;4.65;;;;;;;18.85;65.38;100421.31;5603197;31;33553;-59
2023/05/22 04:45:44;;;;;;;9.15;4.65;;;;;;;18.93;69.28;100429.34;5602073;31;33722;-59
2023/05/22 04:48:47;;;;;;;6.37;4.65;;;;;;;18.95;67.21;100424.38;5587092;31;33568;-59
2023/05/22 04:51:50;;;;;;;6.45;4.22;;;;;;;19.02;62.61;100429.28;5582938;31;33762;-59
2023/05/22 04:54:53;;;;;;;8.27;4.22;;;;;;;18.98;63.63;100440.03;5594894;31;33069;-59
2023/05/22 04:57:55;;;;;;;6.47;4.53;;;;;;;19.07;68.16;100433.69;5584644;31;33298;-59
2023/05/22 05:00:58;;;;;;;6.90;4.12;;;;;;;19.12;71.98;100433.50;5582647;31;34017;-59
2023/05/22 05:04:02;;;;;;;6.32;3.97;;;;;;;19.13;61.90;100435.06;5589851;31;33465;-60
2023/05/22 05:07:05;;;;;;;6.95;4.57;;;;;;;19.14;61.34;100436.66;5622786;31;33589;-59
2023/05/22 05:10:09;;;;;;;7.95;4.15;;;;;;;19.25;62.96;100445.97;5604246;31;33473;-59
2023/05/22 05:13:11;;;;;;;17.23;4.40;;;;;;;19.22;62.60;100438.50;5580693;31;33549;-59
2023/05/22 05:16:13;;;;;;;6.95;4.70;;;;;;;19.26;65.08;100444.84;5569874;31;33450;-59
2023/05/22 05:19:20;;;;;;;13.23;4.60;;;;;;;19.31;60.75;100447.34;5569964;32;34319;-59
2023/05/22 05:22:22;;;;;;;7.22;3.95;;;;;;;19.32;59.39;100451.63;5570968;31;34339;-59
2023/05/22 05:25:25;;;;;;;5.12;3.70;;;;;;;19.41;61.37;100448.84;5581054;31;33890;-59
2023/05/22 05:28:28;;;;;;;7.22;3.95;;;;;;;19.56;63.58;100447.37;5588737;31;34577;-59
2023/05/22 05:31:32;;;;;;;7.47;4.32;;;;;;;19.71;59.22;100441.28;5571790;31;31709;-59
2023/05/22 05:34:35;;;;;;;6.78;3.85;;;;;;;19.78;57.78;100438.00;5569316;32;33541;-60
2023/05/22 05:37:37;;;;;;;9.00;4.03;;;;;;;19.99;64.18;100438.66;5569456;31;33392;-59
2023/05/22 05:40:40;;;;;;;9.63;4.00;;;;;;;20.05;58.56;100442.72;5569657;31;33304;-59
2023/05/22 05:43:43;;;;;;;10.35;5.20;;;;;;;20.07;57.05;100462.25;5574729;31;33377;-59
2023/05/22 05:46:46;;;;;;;7.85;4.10;;;;;;;20.18;56.19;100465.28;5575940;31;34418;-59
2023/05/22 05:49:49;;;;;;;9.80;4.60;;;;;;;20.32;58.18;100462.19;5569872;31;34122;-59
2023/05/22 05:52:53;;;;;;;7.12;4.00;;;;;;;20.26;57.16;100463.56;5571133;31;34470;-59
2023/05/22 05:55:56;;;;;;;7.25;4.30;;;;;;;20.13;57.05;100458.16;5580732;31;33078;-59
2023/05/22 05:59:00;;;;;;;9.82;4.30;;;;;;;20.12;64.43;100463.94;5577371;31;33553;-55
2023/05/22 06:02:04;;;;;;;6.22;3.92;;;;;;;20.30;56.97;100459.03;5572312;31;32407;-57
2023/05/22 06:05:07;;;;;;;9.05;4.30;;;;;;;20.35;59.71;100456.84;5574496;31;33149;-57
2023/05/22 06:08:12;;;;;;;9.75;4.28;;;;;;;20.50;54.91;100463.53;5586490;31;33632;-55
2023/05/22 06:11:15;;;;;;;10.75;4.53;;;;;;;20.57;55.50;100458.31;5580196;31;34610;-56
2023/05/22 06:14:22;;;;;;;10.10;4.78;;;;;;;20.68;54.42;100458.59;5575354;31;33709;-56
2023/05/22 06:17:26;;;;;;;10.52;4.60;;;;;;;20.78;60.16;100455.38;5576394;31;34361;-56
2023/05/22 06:20:28;;;;;;;13.13;4.62;;;;;;;20.92;52.43;100462.38;5579533;31;33213;-56
2023/05/22 06:23:31;;;;;;;11.80;4.65;;;;;;;20.95;52.89;100457.00;5582256;31;33091;-57
2023/05/22 06:26:34;;;;;;;6.82;4.28;;;;;;;20.90;53.47;100457.28;5584366;31;33112;-57
2023/05/22 06:29:37;;;;;;;6.82;4.25;;;;;;;21.14;53.58;100459.06;5578457;31;34380;-57
2023/05/22 06:32:40;;;;;;;9.55;4.25;;;;;;;21.25;54.99;100454.69;5576302;31;34560;-56
2023/05/22 06:35:44;;;;;;;10.30;4.22;;;;;;;21.14;50.25;100452.84;5575985;31;33577;-56
2023/05/22 06:38:48;;;;;;;10.88;4.50;;;;;;;21.14;56.38;100458.28;5580265;31;33446;-56
2023/05/22 06:41:52;;;;;;;12.48;4.80;;;;;;;21.07;50.81;100450.72;5580863;31;34373;-56
2023/05/22 06:44:54;;;;;;;11.93;4.40;;;;;;;20.93;56.58;100461.25;5588178;31;34302;-56
2023/05/22 06:47:58;;;;;;;10.35;3.85;;;;;;;21.21;55.31;100451.06;5570819;31;33109;-56
2023/05/22 06:51:01;;;;;;;10.43;4.25;;;;;;;21.30;48.49;100454.44;5588529;31;34565;-56
2023/05/22 06:54:05;;;;;;;9.27;4.10;;;;;;;21.37;49.94;100451.13;5575798;31;33490;-56
2023/05/22 06:57:09;;;;;;;9.25;4.22;;;;;;;21.49;51.28;100463.87;5572773;31;34409;-56
2023/05/22 07:00:13;;;;;;;11.18;4.40;;;;;;;21.57;49.96;100458.25;5571224;31;33541;-57
2023/05/22 07:03:16;;;;;;;9.55;3.70;;;;;;;21.68;46.34;100455.00;5579591;31;34467;-57
2023/05/22 07:06:19;;;;;;;9.70;3.97;;;;;;;21.73;51.05;100458.25;5574936;31;33189;-57
2023/05/22 07:09:21;;;;;;;9.75;3.72;;;;;;;21.71;46.45;100454.28;5581088;31;34763;-57
2023/05/22 07:12:27;;;;;;;7.22;4.40;;;;;;;21.80;47.15;100461.13;5578172;31;33055;-57
2023/05/22 07:15:29;;;;;;;13.32;4.32;;;;;;;21.74;47.57;100456.31;5580927;31;33467;-57
2023/05/22 07:18:32;;;;;;;9.90;3.90;;;;;;;21.67;49.53;100464.31;5572746;31;33564;-56
2023/05/22 07:21:35;;;;;;;9.18;4.22;;;;;;;21.72;47.97;100464.84;5577810;31;34407;-57
2023/05/22 07:24:49;;;;;;;9.55;4.30;;;;;;;21.76;47.54;100468.47;5574711;31;33264;-57
2023/05/22 07:27:54;;;;;;;8.52;4.00;;;;;;;21.77;47.21;100463.78;5578556;31;33802;-56
2023/05/22 07:30:58;;;;;;;9.68;4.12;;;;;;;21.58;46.01;100459.81;5572294;31;31731;-54
2023/05/22 07:34:01;;;;;;;9.32;4.07;;;;;;;21.53;46.89;100460.09;5577085;31;31530;-53
2023/05/22 07:37:10;;;;;;;6.72;3.92;;;;;;;21.50;48.59;100449.91;5577080;31;33374;-56
2023/05/22 07:40:13;;;;;;;9.30;4.18;;;;;;;21.60;46.41;100454.03;5581497;31;33644;-55
2023/05/22 07:43:15;;;;;;;12.13;4.50;;;;;;;21.64;44.73;100449.44;5576975;31;33473;-55
2023/05/22 07:46:19;;;;;;;8.85;3.22;;;;;;;21.54;48.08;100452.72;5578267;31;33562;-55
2023/05/22 07:49:25;;;;;;;9.20;3.80;;;;;;;21.55;50.08;100455.06;5567638;31;33298;-55
2023/05/22 07:52:27;;;;;;;7.65;4.45;;;;;;;21.53;51.74;100451.91;5573048;31;34979;-55
2023/05/22 07:55:30;;;;;;;8.05;3.47;;;;;;;21.51;51.97;100461.59;5567914;31;34257;-55
2023/05/22 07:58:33;;;;;;;6.37;3.42;;;;;;;21.41;51.63;100453.94;5571436;31;33367;-55
2023/05/22 08:01:37;;;;;;;7.70;4.07;;;;;;;21.41;50.99;100462.12;5586888;31;34621;-55
2023/05/22 08:04:39;;;;;;;9.63;3.80;;;;;;;21.40;51.92;100463.28;5574998;31;33650;-56
2023/05/22 08:07:42;;;;;;;11.65;4.22;;;;;;;21.31;53.46;100469.62;5580929;31;33566;-55
2023/05/22 08:10:45;;;;;;;13.00;4.37;;;;;;;21.37;50.91;100463.97;5585133;31;33665;-55
2023/05/22 08:14:04;;;;;;;8.05;3.42;;;;;;;21.33;51.90;100456.47;5586036;31;34360;-56
2023/05/22 08:17:07;;;;;;;8.40;4.22;;;;;;;21.39;49.96;100459.75;5576531;31;34401;-55
2023/05/22 08:20:10;;;;;;;7.18;3.90;;;;;;;21.36;51.03;100452.28;5576575;31;34049;-55
2023/05/22 08:23:13;;;;;;;7.72;3.92;;;;;;;21.43;56.48;100457.13;5580874;31;33706;-56
2023/05/22 08:26:15;;;;;;;9.32;4.03;;;;;;;21.63;52.03;100453.34;5579348;31;34049;-55
2023/05/22 08:29:18;;;;;;;10.23;3.95;;;;;;;21.76;50.70;100448.56;5568461;31;33505;-56
2023/05/22 08:32:20;;;;;;;10.15;4.15;;;;;;;21.85;49.59;100456.56;5566971;31;33665;-56
2023/05/22 08:35:23;;;;;;;8.27;3.90;;;;;;;21.75;49.28;100453.22;5579327;31;34214;-56
2023/05/22 08:38:25;;;;;;;10.38;4.00;;;;;;;21.79;49.20;100451.38;5573569;31;32283;-55
2023/05/22 08:41:28;;;;;;;12.05;3.72;;;;;;;21.88;49.89;100453.91;5571659;31;33678;-56
2023/05/22 08:44:31;;;;;;;7.53;3.75;;;;;;;21.99;47.52;100459.62;5567750;31;33583;-55
2023/05/22 08:47:36;;;;;;;10.80;4.30;;;;;;;22.11;48.46;100461.44;5571587;31;33670;-56
2023/05/22 08:50:42;;;;;;;10.80;3.97;;;;;;;22.18;48.88;100454.22;5574530;31;33664;-55
2023/05/22 08:53:45;;;;;;;12.13;4.72;;;;;;;22.19;50.05;100455.03;5575207;31;34243;-56
2023/05/22 08:56:48;;;;;;;8.00;3.53;;;;;;;22.20;49.20;100451.94;5586780;31;34361;-56
2023/05/22 08:59:59;;;;;;;9.25;3.92;;;;;;;22.14;48.60;100450.59;5588967;31;33639;-56
2023/05/22 09:03:01;;;;;;;9.88;4.22;;;;;;;22.19;52.59;100457.75;5589626;31;33530;-56
2023/05/22 09:06:08;;;;;;;9.27;4.07;;;;;;;22.26;49.14;100447.78;5586304;31;33996;-55
2023/05/22 09:09:11;;;;;;;10.93;5.18;;;;;;;22.38;49.17;100449.56;5589164;31;33596;-55
2023/05/22 09:12:14;;;;;;;8.43;4.32;;;;;;;22.22;47.99;100435.22;5584497;31;33478;-55
2023/05/22 09:15:19;;;;;;;8.30;4.05;;;;;;;22.26;48.28;100442.31;5575119;31;33197;-55
2023/05/22 09:18:25;;;;;;;8.88;3.95;;;;;;;22.28;47.70;100450.13;5578889;31;34152;-54
2023/05/22 09:21:28;;;;;;;14.07;4.12;;;;;;;22.33;46.85;100440.87;5578498;31;33582;-54
2023/05/22 09:24:42;;;;;;;6.57;3.95;;;;;;;22.33;48.40;100441.69;5578872;31;33650;-55
2023/05/22 09:27:45;;;;;;;14.73;4.37;;;;;;;22.42;48.00;100445.00;5575343;31;32025;-55
2023/05/22 09:30:52;;;;;;;8.60;3.70;;;;;;;22.54;47.31;100446.00;5574390;31;32188;-56
2023/05/22 09:33:55;;;;;;;8.38;4.32;;;;;;;22.46;48.68;100443.13;5573779;31;34521;-55
2023/05/22 09:37:02;;;;;;;13.02;4.12;;;;;;;22.55;46.88;100450.31;5588510;31;33701;-56
2023/05/22 09:40:05;;;;;;;8.57;4.15;;;;;;;22.54;47.75;100446.78;5579166;31;33684;-55
2023/05/22 09:43:09;;;;;;;81.57;9.63;;;;;;;22.46;47.26;100443.13;5576685;31;33724;-56
2023/05/22 09:46:15;;;;;;;20.35;5.20;;;;;;;22.51;49.29;100439.31;5571864;31;33496;-55
2023/05/22 09:49:17;;;;;;;13.75;4.53;;;;;;;22.48;52.46;100438.09;5575346;31;33569;-55
2023/05/22 09:52:22;;;;;;;10.18;4.30;;;;;;;22.56;50.05;100432.78;5577595;31;33671;-55
2023/05/22 09:55:25;;;;;;;11.43;3.90;;;;;;;22.57;50.18;100434.34;5579531;31;34303;-55
2023/05/22 09:58:32;;;;;;;9.95;4.50;;;;;;;22.54;48.32;100429.59;5582292;31;33618;-55
2023/05/22 10:01:37;;;;;;;8.88;4.82;;;;;;;22.44;49.75;100428.22;5576919;31;34418;-56
2023/05/22 10:04:41;;;;;;;7.15;4.30;;;;;;;22.51;48.58;100431.88;5588842;31;33773;-55
2023/05/22 10:07:53;;;;;;;10.73;4.45;;;;;;;22.50;49.91;100433.06;5588912;31;33630;-55
2023/05/22 10:10:57;;;;;;;5.53;3.95;;;;;;;22.47;47.72;100433.78;5589225;31;33586;-55
2023/05/22 10:14:02;;;;;;;8.25;4.03;;;;;;;22.46;49.71;100429.47;5588398;31;33696;-55
2023/05/22 10:17:05;;;;;;;10.05;4.28;;;;;;;22.54;50.26;100435.06;5589109;31;33648;-55
2023/05/22 10:20:09;;;;;;;12.82;4.40;;;;;;;22.59;49.49;100432.84;5581119;31;33175;-55
2023/05/22 10:23:14;;;;;;;11.80;4.35;;;;;;;22.74;49.89;100428.44;5582445;31;33963;-55
2023/05/22 10:26:16;;;;;;;9.52;3.97;;;;;;;22.72;47.79;100419.81;5569178;32;34322;-55
2023/05/22 10:29:35;;;;;;;10.13;4.87;;;;;;;22.87;48.79;100418.94;5572758;31;33612;-56
2023/05/22 10:32:46;;;;;;;6.82;4.30;;;;;;;22.91;47.08;100416.25;5586782;31;35014;-55
2023/05/22 10:35:54;;;;;;;10.75;4.53;;;;;;;22.84;46.14;100408.72;5578459;31;33691;-56
2023/05/22 10:38:56;;;;;;;8.90;4.00;;;;;;;22.81;48.60;100411.38;5574011;31;33185;-55
2023/05/22 10:41:59;;;;;;;7.53;4.10;;;;;;;22.75;47.00;100397.25;5573085;31;33685;-56
2023/05/22 10:45:03;;;;;;;8.07;4.15;;;;;;;22.65;46.27;100390.44;5569247;31;33621;-55
2023/05/22 10:48:07;;;;;;;7.53;3.97;;;;;;;22.94;45.80;100399.94;5571652;31;33578;-56
2023/05/22 10:51:16;;;;;;;10.30;4.53;;;;;;;22.90;45.52;100388.12;5576844;31;33850;-55
2023/05/22 10:54:37;;;;;;;10.93;4.15;;;;;;;22.89;45.95;100383.84;5580419;31;33687;-56
2023/05/22 10:57:40;;;;;;;7.35;4.07;;;;;;;23.02;47.80;100380.97;5572827;31;33241;-55
2023/05/22 11:00:43;;;;;;;6.12;4.50;;;;;;;23.06;45.93;100376.34;5573877;31;33653;-56
2023/05/22 11:04:00;;;;;;;14.13;4.22;;;;;;;22.99;47.30;100374.28;5578323;31;34309;-55
2023/05/22 11:07:05;;;;;;;7.75;4.32;;;;;;;22.94;45.65;100378.06;5581029;31;33717;-55
2023/05/22 11:10:07;;;;;;;9.88;3.97;;;;;;;23.04;48.43;100371.22;5578632;31;33774;-55
2023/05/22 11:13:11;;;;;;;9.93;4.30;;;;;;;23.17;47.37;100369.09;5576667;31;33309;-56
2023/05/22 11:16:14;;;;;;;8.73;4.50;;;;;;;23.33;47.36;100374.44;5576914;31;33841;-56
2023/05/22 11:19:20;;;;;;;9.35;4.45;;;;;;;23.32;47.94;100357.22;5578301;31;34336;-56
2023/05/22 11:22:32;;;;;;;9.27;4.43;;;;;;;23.42;45.67;100362.09;5574961;31;34285;-56
2023/05/22 11:25:36;;;;;;;12.50;5.12;;;;;;;23.34;45.98;100354.91;5578499;31;33670;-56
2023/05/22 11:28:38;;;;;;;5.87;3.80;;;;;;;23.33;47.36;100355.28;5577109;31;33781;-56
2023/05/22 11:31:41;;;;;;;5.75;3.65;;;;;;;23.46;47.13;100348.44;5584995;31;33662;-55
2023/05/22 11:34:46;;;;;;;7.82;4.15;;;;;;;23.48;44.90;100345.34;5582965;31;34430;-55
2023/05/22 11:37:51;;;;;;;9.68;4.87;;;;;;;23.43;44.11;100349.19;5573377;31;33614;-56
2023/05/22 11:40:54;;;;;;;9.73;4.20;;;;;;;23.37;45.29;100345.97;5575149;31;32244;-56
2023/05/22 11:43:59;;;;;;;9.73;4.15;;;;;;;23.43;46.56;100344.50;5584234;31;33470;-56
2023/05/22 11:47:01;;;;;;;7.45;3.60;;;;;;;23.57;42.25;100348.59;5581786;31;33714;-55
2023/05/22 11:50:05;;;;;;;15.68;4.93;;;;;;;23.50;43.18;100335.59;5580824;31;34408;-55
2023/05/22 11:53:07;;;;;;;10.18;3.72;;;;;;;23.47;44.34;100339.06;5578496;31;34419;-55
2023/05/22 11:56:12;;;;;;;7.55;4.25;;;;;;;23.50;43.18;100337.56;5567055;31;33637;-58
2023/05/22 11:59:15;;;;;;;8.10;3.95;;;;;;;23.42;43.47;100333.94;5574961;31;33311;-55
2023/05/22 12:02:19;;;;;;;10.07;3.92;;;;;;;23.38;44.49;100327.63;5582071;31;33690;-55
2023/05/22 12:05:21;;;;;;;10.98;4.70;;;;;;;23.43;45.15;100327.31;5586795;31;33580;-55
2023/05/22 12:08:24;;;;;;;6.57;4.10;;;;;;;23.71;44.91;100326.97;5577983;31;33382;-55
2023/05/22 12:11:26;;;;;;;9.18;4.57;;;;;;;23.64;42.61;100321.34;5571082;31;33915;-55
2023/05/22 12:14:30;;;;;;;12.75;4.50;;;;;;;23.68;43.93;100319.50;5576093;31;33645;-55
2023/05/22 12:17:35;;;;;;;13.18;4.53;;;;;;;23.87;44.08;100319.34;5567801;31;33754;-55
2023/05/22 12:20:42;;;;;;;9.40;4.53;;;;;;;23.80;44.50;100315.72;5580442;31;33482;-55
2023/05/22 12:23:51;;;;;;;8.65;4.45;;;;;;;23.85;43.89;100309.94;5585662;31;33668;-55
2023/05/22 12:26:54;;;;;;;8.43;4.00;;;;;;;23.87;45.36;100311.16;5574684;31;33790;-55
2023/05/22 12:29:57;;;;;;;11.45;4.57;;;;;;;23.90;44.18;100301.37;5569243;31;33666;-55
2023/05/22 12:32:59;;;;;;;6.10;4.40;;;;;;;23.96;44.14;100304.59;5578732;31;34411;-58
2023/05/22 12:36:06;;;;;;;5.93;3.90;;;;;;;24.01;43.77;100296.84;5569928;31;33607;-57
2023/05/22 12:39:10;;;;;;;7.32;4.47;;;;;;;24.11;42.94;100290.69;5570779;31;34423;-58
2023/05/22 12:42:12;;;;;;;11.18;4.47;;;;;;;24.12;42.28;100288.75;5582445;31;33613;-57
2023/05/22 12:45:16;;;;;;;11.57;4.65;;;;;;;24.12;42.83;100286.00;5589415;31;33725;-57
2023/05/22 12:48:19;;;;;;;8.15;4.60;;;;;;;23.96;44.71;100282.69;5579382;31;34538;-57
2023/05/22 12:51:22;;;;;;;8.57;4.62;;;;;;;23.94;45.25;100271.31;5580030;31;33619;-57
2023/05/22 12:54:25;;;;;;;9.05;4.53;;;;;;;24.04;44.62;100262.41;5584731;31;33616;-58
2023/05/22 12:57:28;;;;;;;8.27;4.32;;;;;;;24.13;44.55;100260.19;5581281;31;32671;-57
2023/05/22 13:00:31;;;;;;;12.48;4.78;;;;;;;24.10;43.83;100260.94;5588627;31;33604;-57
2023/05/22 13:03:33;;;;;;;7.07;4.28;;;;;;;24.19;43.92;100258.69;5580466;31;34430;-57
2023/05/22 13:06:36;;;;;;;10.18;5.05;;;;;;;24.10;42.78;100249.97;5572869;31;33725;-58
2023/05/22 13:09:38;;;;;;;11.55;4.93;;;;;;;24.15;43.57;100249.66;5574291;31;33612;-58
2023/05/22 13:12:41;;;;;;;11.52;5.25;;;;;;;24.09;43.98;100249.19;5582330;31;32194;-57
2023/05/22 13:15:44;;;;;;;7.82;4.87;;;;;;;24.19;44.14;100241.47;5589010;31;33822;-57
2023/05/22 13:18:47;;;;;;;9.63;4.85;;;;;;;24.19;43.69;100242.25;5589121;31;33598;-57
2023/05/22 13:21:49;;;;;;;16.02;5.55;;;;;;;24.11;43.02;100230.44;5585766;31;34338;-57
2023/05/22 13:24:51;;;;;;;7.00;4.78;;;;;;;24.19;44.52;100219.56;5570342;31;33708;-57
2023/05/22 13:27:54;;;;;;;8.40;4.82;;;;;;;24.29;44.06;100235.31;5571366;31;34344;-57
2023/05/22 13:30:56;;;;;;;11.88;5.18;;;;;;;24.34;45.40;100232.25;5578466;31;33878;-57
2023/05/22 13:33:59;;;;;;;11.50;5.32;;;;;;;24.45;45.69;100230.41;5589043;31;34317;-57
2023/05/22 13:37:04;;;;;;;11.25;4.97;;;;;;;24.42;44.86;100222.94;5589136;31;34269;-57
2023/05/22 13:40:07;;;;;;;13.62;5.05;;;;;;;24.41;43.92;100223.34;5589108;31;33256;-57
2023/05/22 13:43:10;;;;;;;10.32;4.93;;;;;;;24.41;45.36;100217.84;5587268;31;33816;-57
2023/05/22 13:46:12;;;;;;;8.18;4.57;;;;;;;24.43;44.22;100213.53;5586007;31;34300;-57
2023/05/22 13:49:14;;;;;;;16.35;6.20;;;;;;;24.45;43.73;100224.13;5588676;31;33729;-58
2023/05/22 13:52:17;;;;;;;6.25;4.22;;;;;;;24.52;44.35;100211.28;5589121;31;33846;-57
2023/05/22 13:55:19;;;;;;;7.57;4.90;;;;;;;24.48;44.32;100210.47;5589315;31;33638;-57
2023/05/22 13:58:22;;;;;;;8.40;5.28;;;;;;;24.44;44.38;100209.66;5589303;31;34436;-57
2023/05/22 14:01:24;;;;;;;9.05;4.97;;;;;;;24.55;44.87;100207.00;5585442;31;33642;-57
2023/05/22 14:04:27;;;;;;;9.63;5.45;;;;;;;24.55;44.06;100209.75;5588856;31;33598;-57
2023/05/22 14:07:29;;;;;;;8.90;4.95;;;;;;;24.63;43.71;100203.13;5588553;31;34267;-57
2023/05/22 14:10:33;;;;;;;11.32;5.20;;;;;;;24.60;44.84;100210.19;5588980;31;33949;-57
2023/05/22 14:13:35;;;;;;;7.15;5.15;;;;;;;24.57;44.42;100201.94;5588832;31;34325;-58
2023/05/22 14:16:37;;;;;;;13.60;4.57;;;;;;;24.71;44.31;100201.25;5588168;31;34464;-58
2023/05/22 14:19:40;;;;;;;12.02;5.53;;;;;;;24.67;45.02;100197.69;5589050;31;34327;-57
2023/05/22 14:22:44;;;;;;;15.23;5.85;;;;;;;24.68;44.12;100196.53;5589062;31;34446;-58
2023/05/22 14:25:59;;;;;;;9.50;5.05;;;;;;;24.74;46.24;100190.31;5588834;31;34347;-57
2023/05/22 14:29:01;;;;;;;10.90;5.10;;;;;;;24.75;45.71;100191.88;5588743;31;34443;-57
2023/05/22 14:32:04;;;;;;;9.63;4.97;;;;;;;24.85;45.06;100193.91;5588982;31;33752;-60
2023/05/22 14:35:07;;;;;;;7.62;5.50;;;;;;;24.77;45.33;100192.31;5588903;31;33718;-57
2023/05/22 14:38:09;;;;;;;10.15;4.82;;;;;;;24.76;44.66;100187.97;5588762;31;33651;-58
2023/05/22 14:41:12;;;;;;;10.00;5.28;;;;;;;24.81;44.62;100190.38;5588114;31;33692;-58
2023/05/22 14:44:14;;;;;;;7.80;4.90;;;;;;;24.80;45.10;100188.81;5587765;31;34124;-57
2023/05/22 14:47:17;;;;;;;11.05;5.55;;;;;;;24.73;45.20;100177.75;5589002;31;33614;-57
2023/05/22 14:50:19;;;;;;;8.48;5.30;;;;;;;24.79;44.79;100187.19;5588547;31;33652;-58
2023/05/22 14:53:22;;;;;;;11.63;5.00;;;;;;;24.68;45.65;100186.34;5587108;31;34343;-58
2023/05/22 14:56:25;;;;;;;14.15;5.82;;;;;;;24.61;44.93;100180.81;5586885;31;33736;-58
2023/05/22 14:59:27;;;;;;;12.90;5.32;;;;;;;24.58;46.64;100174.12;5588567;31;34391;-58
2023/05/22 15:02:30;;;;;;;10.90;5.12;;;;;;;24.54;46.51;100180.78;5588843;31;33726;-58
2023/05/22 15:05:32;;;;;;;9.40;5.12;;;;;;;24.52;46.45;100180.34;5588568;31;33847;-58
